Aeroporto :
LOGIN :

Iscrizione | Disclaimer

   EN    FR    IT 

 










Sommario :    VFR   VFR Marginale   IFR   IFR Intensivo   IFR Molto Intensivo
Visibilità : 
Base nubi : 
>= 8 km
>= 3000ft
5 / 8 km
1000 / 3000 ft
1500m / 5 km
500 / 1000 ft
800 / 1500m
200 / 500 ft
< 800m
< 200 ft
Simboli :   Temporali  Nebbia  Neve Forte  Precipitazioni Forti  Vento > 20 kt
SIGMETs :   Varie  Temporali  Ghiacco  Turbolenza  Onda orograficha  Ceneri Vulcaniche






- Altitudine del aeroporto : 172 ft
- Codice IATA : LPI


ESSL - Saab

ULTIMO METAR :
  • 032020Z AUTO 26005KT 9999 NCD 02/M06 Q1006

METARs OBSOLETI :
  • 031950Z AUTO 25006KT 220V280 9999 NCD 03/M06 Q1005
  • 031920Z AUTO 27007KT 240V300 9999 NCD 03/M06 Q1005
  • 031850Z AUTO 27007KT 230V300 9999 NCD 04/M07 Q1004
  • 031820Z AUTO 26007KT 9999 NCD 05/M08 Q1004
  • 031750Z AUTO 29012KT 9999 NCD 05/M09 Q1003

TAF TAF ESSL
Valido dal 03 a 18 ore il 03 a 22 ore UTC


031730Z 0318/0322 29011KT CAVOK
TEMPO 0318/0320 SCT040CB



MetMap, La meteo Aeronautica in un colpo d'occhio ! - Copyright ORBIFLY Dicembre 2007 - Disclaimer

ORBIFLY MET'MAP TEAM :

Programmazione e sviluppo : Alexandra Zaïnal
Concezione : Baudouin d'Aumeries
Aiuto per la programmazione : Marc-Olivier Méhu
Supporto tecnico e logistico : Manuel Goepfert
Aiuto per la traduzione : Arnaldo La Scala

Contatto : metmap@orbifly.com




FONTI E CREDITI :

   NOAA